Time;durP1;ratioP1;P1;durP2;ratioP2;P2;SDS_P1;SDS_P2;PMS_P1;PMS_P2;Temp;Humidity;BMP_temperature;BMP_pressure;BME280_temperature;BME280_humidity;BME280_pressure;Samples;Min_cycle;Max_cycle;Signal;HPM_P1;HPM_P2
2021/06/26 00:00:30;;;;;;;;;;;;;;;;;;5113631;27;19988;-60
2021/06/26 00:02:56;;;;;;;;;;;;;;;;;;5111174;28;19966;-60
2021/06/26 00:05:22;;;;;;;;;;;;;;;;;;5117071;27;20004;-60
2021/06/26 00:07:48;;;;;;;;;;;;;;;;;;5114350;27;19911;-60
2021/06/26 00:10:14;;;;;;;;;;;;;;;;;;5113906;27;19927;-60
2021/06/26 00:12:40;;;;;;;;;;;;;;;;;;5114053;27;19980;-60
2021/06/26 00:15:05;;;;;;;;;;;;;;;;;;5110271;28;20362;-60
2021/06/26 00:17:31;;;;;;;;;;;;;;;;;;5116274;27;20278;-60
2021/06/26 00:19:57;;;;;;;;;;;;;;;;;;5116007;27;19907;-60
2021/06/26 00:22:23;;;;;;;;;;;;;;;;;;5113838;27;19966;-60
2021/06/26 00:24:49;;;;;;;;;;;;;;;;;;5114079;27;19916;-60
2021/06/26 00:27:15;;;;;;;;;;;;;;;;;;5111385;28;19916;-60
2021/06/26 00:29:41;;;;;;;;;;;;;;;;;;5113739;27;19907;-60
2021/06/26 00:32:07;;;;;;;;;;;;;;;;;;5115093;27;19912;-60
2021/06/26 00:34:33;;;;;;;;;;;;;;;;;;5113980;28;20006;-60
2021/06/26 00:36:58;;;;;;;;;;;;;;;;;;5113487;28;19919;-60
2021/06/26 00:39:24;;;;;;;;;;;;;;;;;;5112750;27;19915;-60
2021/06/26 00:41:50;;;;;;;;;;;;;;;;;;5111855;28;19998;-60
2021/06/26 00:44:16;;;;;;;;;;;;;;;;;;5115576;28;20287;-60
2021/06/26 00:46:42;;;;;;;;;;;;;;;;;;5113407;28;19912;-61
2021/06/26 00:49:08;;;;;;;;;;;;;;;;;;5113606;28;20423;-61
2021/06/26 00:51:34;;;;;;;;;;;;;;;;;;5113350;28;19912;-60
2021/06/26 00:54:00;;;;;;;;;;;;;;;;;;5093629;28;19963;-60
2021/06/26 00:56:26;;;;;;;;;;;;;;;;;;5098921;28;20282;-60
2021/06/26 00:58:51;;;;;;;;;;;;;;;;;;5113003;28;19920;-60
2021/06/26 01:01:17;;;;;;;;;;;;;;;;;;5113354;28;19937;-60
2021/06/26 01:03:45;;;;;;;;;;;;;;;;;;5114913;27;19918;-60
2021/06/26 01:06:11;;;;;;;;;;;;;;;;;;5114533;27;19935;-61
2021/06/26 01:08:37;;;;;;;;;;;;;;;;;;5119354;27;20275;-61
2021/06/26 01:11:03;;;;;;;;;;;;;;;;;;5118290;27;19920;-62
2021/06/26 01:13:29;;;;;;;;;;;;;;;;;;5117534;27;19915;-60
2021/06/26 01:15:55;;;;;;;;;;;;;;;;;;5117308;27;20049;-60
2021/06/26 01:18:21;;;;;;;;;;;;;;;;;;5115696;27;20003;-60
2021/06/26 01:20:47;;;;;;;;;;;;;;;;;;5116601;27;19923;-60
2021/06/26 01:23:14;;;;;;;;;;;;;;;;;;5119051;27;19914;-61
2021/06/26 01:25:39;;;;;;;;;;;;;;;;;;5117451;27;19965;-60
2021/06/26 01:28:05;;;;;;;;;;;;;;;;;;5117099;27;19935;-60
2021/06/26 01:30:31;;;;;;;;;;;;;;;;;;5116559;27;20431;-60
2021/06/26 01:32:57;;;;;;;;;;;;;;;;;;5114665;27;19943;-60
2021/06/26 01:35:23;;;;;;;;;;;;;;;;;;5119688;27;19993;-60
2021/06/26 01:37:49;;;;;;;;;;;;;;;;;;5117180;27;20023;-61
2021/06/26 01:40:15;;;;;;;;;;;;;;;;;;5116824;27;19922;-60
2021/06/26 01:42:41;;;;;;;;;;;;;;;;;;5116904;27;19980;-60
2021/06/26 01:45:07;;;;;;;;;;;;;;;;;;5113403;27;20371;-60
2021/06/26 01:47:33;;;;;;;;;;;;;;;;;;5119507;27;20347;-61
2021/06/26 01:49:59;;;;;;;;;;;;;;;;;;5116979;27;19911;-60
2021/06/26 01:52:25;;;;;;;;;;;;;;;;;;5116920;27;20015;-60
2021/06/26 01:54:51;;;;;;;;;;;;;;;;;;5116910;27;19963;-60
2021/06/26 01:57:17;;;;;;;;;;;;;;;;;;5113864;27;20379;-60
2021/06/26 01:59:42;;;;;;;;;;;;;;;;;;5116819;27;19907;-61
2021/06/26 02:02:08;;;;;;;;;;;;;;;;;;5117848;27;19908;-60
2021/06/26 02:04:34;;;;;;;;;;;;;;;;;;5116278;27;19911;-60
2021/06/26 02:07:00;;;;;;;;;;;;;;;;;;5116620;27;19912;-61
2021/06/26 02:09:26;;;;;;;;;;;;;;;;;;5115394;27;19919;-60
2021/06/26 02:11:52;;;;;;;;;;;;;;;;;;5114349;27;19966;-61
2021/06/26 02:14:18;;;;;;;;;;;;;;;;;;5118687;27;19914;-60
2021/06/26 02:16:44;;;;;;;;;;;;;;;;;;5116116;27;19912;-60
2021/06/26 02:19:09;;;;;;;;;;;;;;;;;;5116433;27;19976;-60
2021/06/26 02:21:35;;;;;;;;;;;;;;;;;;5115833;27;20016;-60
2021/06/26 02:24:01;;;;;;;;;;;;;;;;;;5112387;28;19912;-60
2021/06/26 02:26:27;;;;;;;;;;;;;;;;;;5119537;27;19908;-61
2021/06/26 02:28:53;;;;;;;;;;;;;;;;;;5115868;27;19908;-60
2021/06/26 02:31:19;;;;;;;;;;;;;;;;;;5097837;28;20359;-60
2021/06/26 02:33:45;;;;;;;;;;;;;;;;;;5116205;27;19942;-61
2021/06/26 02:36:11;;;;;;;;;;;;;;;;;;5112709;27;20368;-60
2021/06/26 02:38:36;;;;;;;;;;;;;;;;;;5117204;27;20291;-60
2021/06/26 02:41:02;;;;;;;;;;;;;;;;;;5116752;27;19937;-60
2021/06/26 02:43:28;;;;;;;;;;;;;;;;;;5115668;27;20378;-60
2021/06/26 02:45:54;;;;;;;;;;;;;;;;;;5115624;27;19911;-61
2021/06/26 02:48:20;;;;;;;;;;;;;;;;;;5113563;27;19994;-61
2021/06/26 02:50:46;;;;;;;;;;;;;;;;;;5116060;27;19911;-60
2021/06/26 02:53:12;;;;;;;;;;;;;;;;;;5116961;27;20286;-60
2021/06/26 02:55:38;;;;;;;;;;;;;;;;;;5115392;27;19912;-60
2021/06/26 02:58:04;;;;;;;;;;;;;;;;;;5115311;27;19920;-60
2021/06/26 03:00:30;;;;;;;;;;;;;;;;;;5115057;27;19914;-60
2021/06/26 03:02:56;;;;;;;;;;;;;;;;;;5112313;27;19935;-60
2021/06/26 03:05:21;;;;;;;;;;;;;;;;;;5118228;27;19938;-61
2021/06/26 03:07:47;;;;;;;;;;;;;;;;;;5097320;28;20359;-60
2021/06/26 03:10:13;;;;;;;;;;;;;;;;;;5115018;27;19927;-60
2021/06/26 03:12:39;;;;;;;;;;;;;;;;;;5114685;27;19916;-60
2021/06/26 03:15:05;;;;;;;;;;;;;;;;;;5111188;27;20375;-60
2021/06/26 03:17:31;;;;;;;;;;;;;;;;;;5100030;28;19920;-60
2021/06/26 03:19:57;;;;;;;;;;;;;;;;;;5117111;27;19919;-60
2021/06/26 03:22:23;;;;;;;;;;;;;;;;;;5096972;28;19911;-60
2021/06/26 03:24:49;;;;;;;;;;;;;;;;;;5114260;27;19939;-60
2021/06/26 03:27:15;;;;;;;;;;;;;;;;;;5111373;27;19939;-60
2021/06/26 03:29:41;;;;;;;;;;;;;;;;;;5115926;27;19908;-60
2021/06/26 03:32:07;;;;;;;;;;;;;;;;;;5116202;27;19970;-60
2021/06/26 03:34:33;;;;;;;;;;;;;;;;;;5114377;27;19915;-60
2021/06/26 03:37:00;;;;;;;;;;;;;;;;;;5114638;27;20282;-60
2021/06/26 03:39:25;;;;;;;;;;;;;;;;;;5113234;27;20011;-65
2021/06/26 03:41:51;;;;;;;;;;;;;;;;;;5113118;27;19947;-60
2021/06/26 03:44:17;;;;;;;;;;;;;;;;;;5116627;27;19919;-60
2021/06/26 03:46:43;;;;;;;;;;;;;;;;;;5114680;27;20335;-60
2021/06/26 03:49:09;;;;;;;;;;;;;;;;;;5114698;27;19916;-61
2021/06/26 03:51:35;;;;;;;;;;;;;;;;;;5114092;27;19911;-60
2021/06/26 03:54:01;;;;;;;;;;;;;;;;;;5110522;28;20366;-60
2021/06/26 03:56:27;;;;;;;;;;;;;;;;;;5117424;27;19912;-60
2021/06/26 03:58:53;;;;;;;;;;;;;;;;;;5114344;27;19920;-60
2021/06/26 04:01:18;;;;;;;;;;;;;;;;;;5114484;27;19912;-60
2021/06/26 04:03:46;;;;;;;;;;;;;;;;;;5113972;27;19912;-60
2021/06/26 04:06:12;;;;;;;;;;;;;;;;;;5110416;27;19957;-60
2021/06/26 04:08:38;;;;;;;;;;;;;;;;;;5115800;27;19911;-60
2021/06/26 04:11:04;;;;;;;;;;;;;;;;;;5116364;27;20394;-60
2021/06/26 04:13:30;;;;;;;;;;;;;;;;;;5113904;27;19918;-60
2021/06/26 04:15:56;;;;;;;;;;;;;;;;;;5114200;27;19915;-60
2021/06/26 04:18:21;;;;;;;;;;;;;;;;;;5094015;27;19970;-60
2021/06/26 04:20:47;;;;;;;;;;;;;;;;;;5112593;27;19993;-60
2021/06/26 04:23:13;;;;;;;;;;;;;;;;;;5115567;27;20278;-60
2021/06/26 04:25:39;;;;;;;;;;;;;;;;;;5114276;27;20209;-60
2021/06/26 04:28:05;;;;;;;;;;;;;;;;;;5114064;27;20424;-61
2021/06/26 04:30:31;;;;;;;;;;;;;;;;;;5113368;27;19911;-60
2021/06/26 04:32:57;;;;;;;;;;;;;;;;;;5110272;27;19912;-60
2021/06/26 04:35:25;;;;;;;;;;;;;;;;;;5098913;28;19908;-60
2021/06/26 04:37:50;;;;;;;;;;;;;;;;;;5112748;27;19923;-60
2021/06/26 04:40:16;;;;;;;;;;;;;;;;;;5113847;27;20294;-60
2021/06/26 04:42:42;;;;;;;;;;;;;;;;;;5095436;28;19965;-61
2021/06/26 04:45:08;;;;;;;;;;;;;;;;;;5110076;28;19916;-60
2021/06/26 04:47:34;;;;;;;;;;;;;;;;;;5115733;28;19908;-60
2021/06/26 04:50:00;;;;;;;;;;;;;;;;;;5116334;28;19961;-61
2021/06/26 04:52:26;;;;;;;;;;;;;;;;;;5113422;28;20355;-60
2021/06/26 04:54:52;;;;;;;;;;;;;;;;;;5113676;28;20267;-60
2021/06/26 04:57:18;;;;;;;;;;;;;;;;;;5111195;28;19929;-61
2021/06/26 04:59:44;;;;;;;;;;;;;;;;;;5113985;28;20427;-61
2021/06/26 05:02:09;;;;;;;;;;;;;;;;;;5114415;28;19919;-61
2021/06/26 05:04:35;;;;;;;;;;;;;;;;;;5113633;28;19935;-61
2021/06/26 05:07:01;;;;;;;;;;;;;;;;;;5113261;28;19912;-60
2021/06/26 05:09:27;;;;;;;;;;;;;;;;;;5112277;28;19926;-61
2021/06/26 05:11:53;;;;;;;;;;;;;;;;;;5111455;28;20363;-61
2021/06/26 05:14:19;;;;;;;;;;;;;;;;;;5098231;28;19927;-60
2021/06/26 05:16:45;;;;;;;;;;;;;;;;;;5094914;28;19919;-60
2021/06/26 05:19:11;;;;;;;;;;;;;;;;;;5113200;28;19926;-61
2021/06/26 05:21:36;;;;;;;;;;;;;;;;;;5113298;28;19911;-61
2021/06/26 05:24:02;;;;;;;;;;;;;;;;;;5109142;28;19919;-60
2021/06/26 05:26:29;;;;;;;;;;;;;;;;;;5116575;28;20359;-61
2021/06/26 05:28:55;;;;;;;;;;;;;;;;;;5113253;28;19912;-61
2021/06/26 05:31:21;;;;;;;;;;;;;;;;;;5113357;28;19965;-61
2021/06/26 05:33:47;;;;;;;;;;;;;;;;;;5113137;28;19916;-61
2021/06/26 05:36:12;;;;;;;;;;;;;;;;;;5110273;28;19912;-61
2021/06/26 05:38:38;;;;;;;;;;;;;;;;;;5114120;28;19966;-60
2021/06/26 05:41:04;;;;;;;;;;;;;;;;;;5115206;28;20378;-60
2021/06/26 05:43:30;;;;;;;;;;;;;;;;;;5113595;28;19957;-61
2021/06/26 05:45:56;;;;;;;;;;;;;;;;;;5113149;28;19919;-61
2021/06/26 05:48:22;;;;;;;;;;;;;;;;;;5110817;28;20346;-61
2021/06/26 05:50:48;;;;;;;;;;;;;;;;;;5115227;28;19908;-61
2021/06/26 05:53:14;;;;;;;;;;;;;;;;;;5118776;27;20259;-61
2021/06/26 05:55:40;;;;;;;;;;;;;;;;;;5116918;27;19922;-59
2021/06/26 05:58:05;;;;;;;;;;;;;;;;;;5098360;28;20412;-61
2021/06/26 06:00:35;;;;;;;;;;;;;;;;;;5115742;27;19911;-61
2021/06/26 06:03:02;;;;;;;;;;;;;;;;;;5096196;28;19912;-61
2021/06/26 06:05:29;;;;;;;;;;;;;;;;;;5127376;27;19994;-61
2021/06/26 06:07:55;;;;;;;;;;;;;;;;;;5117380;27;19912;-61
2021/06/26 06:10:20;;;;;;;;;;;;;;;;;;5115744;27;19926;-61
2021/06/26 06:12:46;;;;;;;;;;;;;;;;;;5116681;27;20423;-60
2021/06/26 06:15:12;;;;;;;;;;;;;;;;;;5113314;27;19960;-61
2021/06/26 06:17:38;;;;;;;;;;;;;;;;;;5117378;27;19928;-59
2021/06/26 06:20:05;;;;;;;;;;;;;;;;;;5118689;27;20294;-59
2021/06/26 06:22:31;;;;;;;;;;;;;;;;;;5116632;27;19912;-60
2021/06/26 06:24:57;;;;;;;;;;;;;;;;;;5115579;27;19915;-61
2021/06/26 06:27:23;;;;;;;;;;;;;;;;;;5114692;27;19919;-60
2021/06/26 06:29:48;;;;;;;;;;;;;;;;;;5115443;27;19915;-60
2021/06/26 06:32:14;;;;;;;;;;;;;;;;;;5117397;27;20010;-59
2021/06/26 06:34:40;;;;;;;;;;;;;;;;;;5116133;27;20331;-60
2021/06/26 06:37:06;;;;;;;;;;;;;;;;;;5115294;27;19916;-61
2021/06/26 06:39:32;;;;;;;;;;;;;;;;;;5115448;27;20016;-60
2021/06/26 06:41:58;;;;;;;;;;;;;;;;;;5112605;27;19912;-61
2021/06/26 06:44:24;;;;;;;;;;;;;;;;;;5118773;27;20304;-61
2021/06/26 06:46:50;;;;;;;;;;;;;;;;;;5115811;27;19926;-61
2021/06/26 06:49:16;;;;;;;;;;;;;;;;;;5115900;27;19916;-61
2021/06/26 06:51:42;;;;;;;;;;;;;;;;;;5115642;27;20323;-61
2021/06/26 06:54:07;;;;;;;;;;;;;;;;;;5111338;27;19920;-61
2021/06/26 06:56:33;;;;;;;;;;;;;;;;;;5118283;27;19914;-61
2021/06/26 06:58:59;;;;;;;;;;;;;;;;;;5115965;27;20340;-60
2021/06/26 07:01:26;;;;;;;;;;;;;;;;;;5114745;27;19907;-61
2021/06/26 07:03:52;;;;;;;;;;;;;;;;;;5115115;27;19922;-60
2021/06/26 07:06:18;;;;;;;;;;;;;;;;;;5112898;27;19908;-60
2021/06/26 07:08:44;;;;;;;;;;;;;;;;;;5115643;27;19976;-60
2021/06/26 07:11:10;;;;;;;;;;;;;;;;;;5116561;27;20181;-61
2021/06/26 07:13:36;;;;;;;;;;;;;;;;;;5115355;27;19956;-61
2021/06/26 07:16:02;;;;;;;;;;;;;;;;;;5114788;27;20366;-60
2021/06/26 07:18:27;;;;;;;;;;;;;;;;;;5113608;27;19920;-60
2021/06/26 07:20:53;;;;;;;;;;;;;;;;;;5113135;27;19920;-60
2021/06/26 07:23:19;;;;;;;;;;;;;;;;;;5117533;27;19911;-60
2021/06/26 07:25:45;;;;;;;;;;;;;;;;;;5114924;27;19958;-60
2021/06/26 07:28:11;;;;;;;;;;;;;;;;;;5115136;27;19919;-61
2021/06/26 07:30:37;;;;;;;;;;;;;;;;;;5114886;27;19911;-60
2021/06/26 07:33:03;;;;;;;;;;;;;;;;;;5110743;28;19947;-60
2021/06/26 07:35:29;;;;;;;;;;;;;;;;;;5118404;27;19912;-60
2021/06/26 07:37:54;;;;;;;;;;;;;;;;;;5114847;27;19959;-60
2021/06/26 07:40:20;;;;;;;;;;;;;;;;;;5114686;27;19919;-60
2021/06/26 07:42:46;;;;;;;;;;;;;;;;;;5114754;27;19972;-60
2021/06/26 07:45:12;;;;;;;;;;;;;;;;;;5111425;27;19919;-60
2021/06/26 07:47:38;;;;;;;;;;;;;;;;;;5115683;27;20006;-60
2021/06/26 07:50:04;;;;;;;;;;;;;;;;;;5115261;27;19908;-61
2021/06/26 07:52:30;;;;;;;;;;;;;;;;;;5114673;27;19962;-60
2021/06/26 07:54:56;;;;;;;;;;;;;;;;;;5114064;27;19920;-60
2021/06/26 07:57:22;;;;;;;;;;;;;;;;;;5112656;27;20030;-61
2021/06/26 07:59:48;;;;;;;;;;;;;;;;;;5113798;27;19908;-61
2021/06/26 08:02:13;;;;;;;;;;;;;;;;;;5115731;27;20290;-61
2021/06/26 08:04:39;;;;;;;;;;;;;;;;;;5114539;27;19923;-60
2021/06/26 08:07:05;;;;;;;;;;;;;;;;;;5113934;27;20061;-60
2021/06/26 08:09:31;;;;;;;;;;;;;;;;;;5113090;27;19920;-60
2021/06/26 08:11:57;;;;;;;;;;;;;;;;;;5110801;28;19935;-60
2021/06/26 08:14:23;;;;;;;;;;;;;;;;;;5098520;28;19908;-60
2021/06/26 08:16:49;;;;;;;;;;;;;;;;;;5114048;27;20034;-60
2021/06/26 08:19:16;;;;;;;;;;;;;;;;;;5114086;27;19959;-60
2021/06/26 08:21:43;;;;;;;;;;;;;;;;;;5113228;27;19911;-60
2021/06/26 08:24:09;;;;;;;;;;;;;;;;;;5110099;28;20275;-60
2021/06/26 08:26:35;;;;;;;;;;;;;;;;;;5116045;27;19908;-60
2021/06/26 08:29:01;;;;;;;;;;;;;;;;;;5114319;27;19969;-60
2021/06/26 08:31:26;;;;;;;;;;;;;;;;;;5113732;27;19911;-60
2021/06/26 08:33:52;;;;;;;;;;;;;;;;;;5113454;27;20334;-61
2021/06/26 08:36:18;;;;;;;;;;;;;;;;;;5111260;27;19912;-60
2021/06/26 08:38:44;;;;;;;;;;;;;;;;;;5114000;27;20312;-60
2021/06/26 08:41:10;;;;;;;;;;;;;;;;;;5115027;27;20313;-60
2021/06/26 08:43:36;;;;;;;;;;;;;;;;;;5113569;27;19912;-60
2021/06/26 08:46:02;;;;;;;;;;;;;;;;;;5113250;28;20359;-60
2021/06/26 08:48:28;;;;;;;;;;;;;;;;;;5112676;28;20286;-60
2021/06/26 08:50:54;;;;;;;;;;;;;;;;;;5111518;28;19920;-60
2021/06/26 08:53:19;;;;;;;;;;;;;;;;;;5115596;28;19912;-60
2021/06/26 08:55:45;;;;;;;;;;;;;;;;;;5113305;28;19912;-60
2021/06/26 08:58:11;;;;;;;;;;;;;;;;;;5113686;28;20295;-60
2021/06/26 09:00:37;;;;;;;;;;;;;;;;;;5113692;28;19915;-61
2021/06/26 09:03:03;;;;;;;;;;;;;;;;;;5109306;28;19911;-61
2021/06/26 09:05:29;;;;;;;;;;;;;;;;;;5116739;28;20136;-61
2021/06/26 09:07:55;;;;;;;;;;;;;;;;;;5113179;28;19962;-61
2021/06/26 09:10:21;;;;;;;;;;;;;;;;;;5113483;28;19919;-61
2021/06/26 09:12:48;;;;;;;;;;;;;;;;;;5113374;28;19911;-60
2021/06/26 09:15:14;;;;;;;;;;;;;;;;;;5110210;28;20003;-61
2021/06/26 09:17:40;;;;;;;;;;;;;;;;;;5114136;28;20002;-61
2021/06/26 09:20:09;;;;;;;;;;;;;;;;;;5114402;28;19908;-61
2021/06/26 09:22:34;;;;;;;;;;;;;;;;;;5113806;28;19954;-61
2021/06/26 09:25:00;;;;;;;;;;;;;;;;;;5114948;27;19939;-61
2021/06/26 09:27:26;;;;;;;;;;;;;;;;;;5115790;27;19918;-61
2021/06/26 09:29:52;;;;;;;;;;;;;;;;;;5115446;27;19952;-61
2021/06/26 09:32:18;;;;;;;;;;;;;;;;;;5119548;27;19915;-61
2021/06/26 09:34:44;;;;;;;;;;;;;;;;;;5117378;27;19915;-60
2021/06/26 09:37:10;;;;;;;;;;;;;;;;;;5117243;27;19968;-62
2021/06/26 09:39:36;;;;;;;;;;;;;;;;;;5098284;27;19918;-60
2021/06/26 09:42:02;;;;;;;;;;;;;;;;;;5113060;28;19918;-60
2021/06/26 09:44:28;;;;;;;;;;;;;;;;;;5119999;27;20483;-60
2021/06/26 09:46:54;;;;;;;;;;;;;;;;;;5117199;27;19956;-65
2021/06/26 09:49:19;;;;;;;;;;;;;;;;;;5116737;27;19929;-67
2021/06/26 09:51:45;;;;;;;;;;;;;;;;;;5116968;27;19911;-66
2021/06/26 09:54:11;;;;;;;;;;;;;;;;;;5113147;27;19912;-67
2021/06/26 09:56:37;;;;;;;;;;;;;;;;;;5099826;28;19991;-69
2021/06/26 09:59:03;;;;;;;;;;;;;;;;;;5117680;27;19958;-67
2021/06/26 10:01:29;;;;;;;;;;;;;;;;;;5117011;27;19947;-67
2021/06/26 10:03:55;;;;;;;;;;;;;;;;;;5116285;27;19911;-66
2021/06/26 10:06:21;;;;;;;;;;;;;;;;;;5114933;27;19973;-67
2021/06/26 10:08:47;;;;;;;;;;;;;;;;;;5116264;27;19950;-67
2021/06/26 10:11:13;;;;;;;;;;;;;;;;;;5101338;28;19962;-67
2021/06/26 10:13:38;;;;;;;;;;;;;;;;;;5116502;27;19957;-67
2021/06/26 10:16:04;;;;;;;;;;;;;;;;;;5116875;27;19912;-67
2021/06/26 10:18:30;;;;;;;;;;;;;;;;;;5115151;27;20015;-66
2021/06/26 10:20:56;;;;;;;;;;;;;;;;;;5095363;28;20371;-66
2021/06/26 10:23:22;;;;;;;;;;;;;;;;;;5118689;27;20423;-67
2021/06/26 10:25:48;;;;;;;;;;;;;;;;;;5116292;27;19912;-67
2021/06/26 10:28:16;;;;;;;;;;;;;;;;;;5116346;27;19912;-67
2021/06/26 10:30:42;;;;;;;;;;;;;;;;;;5097568;27;19917;-67
2021/06/26 10:33:11;;;;;;;;;;;;;;;;;;5111923;27;20290;-66
2021/06/26 10:35:37;;;;;;;;;;;;;;;;;;5117102;27;19908;-67
2021/06/26 10:38:02;;;;;;;;;;;;;;;;;;5116056;27;20397;-66
2021/06/26 10:40:28;;;;;;;;;;;;;;;;;;5115842;27;19972;-66
2021/06/26 10:42:55;;;;;;;;;;;;;;;;;;5115976;27;19991;-67
2021/06/26 10:45:21;;;;;;;;;;;;;;;;;;5113792;27;19947;-66
2021/06/26 10:47:47;;;;;;;;;;;;;;;;;;5115398;27;19946;-66
2021/06/26 10:50:13;;;;;;;;;;;;;;;;;;5117065;27;19907;-66
2021/06/26 10:52:38;;;;;;;;;;;;;;;;;;5115651;27;19912;-66
2021/06/26 10:55:04;;;;;;;;;;;;;;;;;;5115590;27;19951;-66
2021/06/26 10:57:30;;;;;;;;;;;;;;;;;;5114732;27;20286;-66
2021/06/26 10:59:56;;;;;;;;;;;;;;;;;;5112577;27;19920;-67
2021/06/26 11:02:22;;;;;;;;;;;;;;;;;;5118193;27;20397;-65
2021/06/26 11:04:48;;;;;;;;;;;;;;;;;;5115424;27;20003;-65
2021/06/26 11:07:16;;;;;;;;;;;;;;;;;;5114961;27;19990;-65
2021/06/26 11:09:42;;;;;;;;;;;;;;;;;;5114558;27;19919;-65
2021/06/26 11:12:07;;;;;;;;;;;;;;;;;;5110940;27;20015;-65
2021/06/26 11:14:33;;;;;;;;;;;;;;;;;;5117735;27;19915;-67
2021/06/26 11:16:59;;;;;;;;;;;;;;;;;;5115783;27;19919;-65
2021/06/26 11:19:25;;;;;;;;;;;;;;;;;;5114841;27;19920;-65
2021/06/26 11:21:51;;;;;;;;;;;;;;;;;;5114734;27;20262;-66
2021/06/26 11:24:17;;;;;;;;;;;;;;;;;;5112467;27;19947;-65
2021/06/26 11:26:43;;;;;;;;;;;;;;;;;;5115712;27;20243;-65
2021/06/26 11:29:09;;;;;;;;;;;;;;;;;;5116268;27;19915;-67
2021/06/26 11:31:34;;;;;;;;;;;;;;;;;;5114740;27;20354;-66
2021/06/26 11:34:00;;;;;;;;;;;;;;;;;;5114742;27;19958;-66
2021/06/26 11:36:26;;;;;;;;;;;;;;;;;;5113596;27;19999;-67
2021/06/26 11:38:52;;;;;;;;;;;;;;;;;;5113163;27;19922;-67
2021/06/26 11:41:18;;;;;;;;;;;;;;;;;;5116830;27;19930;-67
2021/06/26 11:43:44;;;;;;;;;;;;;;;;;;5113856;27;20003;-66
2021/06/26 11:46:10;;;;;;;;;;;;;;;;;;5114619;27;19990;-67
2021/06/26 11:48:36;;;;;;;;;;;;;;;;;;5114378;27;19912;-67
2021/06/26 11:51:04;;;;;;;;;;;;;;;;;;5109956;28;20309;-67
2021/06/26 11:53:30;;;;;;;;;;;;;;;;;;5125059;27;19912;-67
2021/06/26 11:55:58;;;;;;;;;;;;;;;;;;5114559;27;20048;-67
2021/06/26 11:58:24;;;;;;;;;;;;;;;;;;5114749;27;19924;-67
2021/06/26 12:00:50;;;;;;;;;;;;;;;;;;5114045;27;20045;-66
2021/06/26 12:03:16;;;;;;;;;;;;;;;;;;5111632;27;19934;-67
2021/06/26 12:05:42;;;;;;;;;;;;;;;;;;5114626;27;19908;-67
2021/06/26 12:08:08;;;;;;;;;;;;;;;;;;5115166;27;20369;-67
2021/06/26 12:10:34;;;;;;;;;;;;;;;;;;5114035;27;20067;-67
2021/06/26 12:13:00;;;;;;;;;;;;;;;;;;5114141;27;20298;-67
2021/06/26 12:15:26;;;;;;;;;;;;;;;;;;5112655;27;19963;-67
2021/06/26 12:17:52;;;;;;;;;;;;;;;;;;5112556;27;19941;-67
2021/06/26 12:20:17;;;;;;;;;;;;;;;;;;5115764;27;19908;-67
2021/06/26 12:22:43;;;;;;;;;;;;;;;;;;5114081;27;19951;-67
2021/06/26 12:25:09;;;;;;;;;;;;;;;;;;5113581;27;19916;-67
2021/06/26 12:27:35;;;;;;;;;;;;;;;;;;5114086;27;20107;-67
2021/06/26 12:30:01;;;;;;;;;;;;;;;;;;5093436;28;19998;-67
2021/06/26 12:32:27;;;;;;;;;;;;;;;;;;5116697;27;19947;-67
2021/06/26 12:34:53;;;;;;;;;;;;;;;;;;5113639;27;20339;-67
2021/06/26 12:37:19;;;;;;;;;;;;;;;;;;5114211;27;19957;-67
2021/06/26 12:39:45;;;;;;;;;;;;;;;;;;5113524;27;19916;-67
2021/06/26 12:42:12;;;;;;;;;;;;;;;;;;5110381;28;19912;-67
2021/06/26 12:44:38;;;;;;;;;;;;;;;;;;5114824;28;19955;-67
2021/06/26 12:47:04;;;;;;;;;;;;;;;;;;5114609;28;19946;-67
2021/06/26 12:49:36;;;;;;;;;;;;;;;;;;5113592;28;20261;-67
2021/06/26 12:52:02;;;;;;;;;;;;;;;;;;5113506;28;19947;-66
2021/06/26 12:54:27;;;;;;;;;;;;;;;;;;5112427;28;19957;-66
2021/06/26 12:56:53;;;;;;;;;;;;;;;;;;5111298;28;20371;-66
2021/06/26 12:59:19;;;;;;;;;;;;;;;;;;5099284;28;19919;-66
2021/06/26 13:01:45;;;;;;;;;;;;;;;;;;5117784;27;20007;-66
2021/06/26 13:04:11;;;;;;;;;;;;;;;;;;5117737;27;19912;-67
2021/06/26 13:06:40;;;;;;;;;;;;;;;;;;5117405;27;19939;-66
2021/06/26 13:09:06;;;;;;;;;;;;;;;;;;5113336;28;19919;-66
2021/06/26 13:11:32;;;;;;;;;;;;;;;;;;5121071;27;19908;-66
2021/06/26 13:13:58;;;;;;;;;;;;;;;;;;5117209;27;19916;-66
2021/06/26 13:16:23;;;;;;;;;;;;;;;;;;5117904;27;20346;-66
2021/06/26 13:18:49;;;;;;;;;;;;;;;;;;5117255;27;19919;-66
2021/06/26 13:21:15;;;;;;;;;;;;;;;;;;5114330;27;19969;-66
2021/06/26 13:23:41;;;;;;;;;;;;;;;;;;5118042;27;20244;-66
2021/06/26 13:26:07;;;;;;;;;;;;;;;;;;5118292;27;19907;-66
2021/06/26 13:28:33;;;;;;;;;;;;;;;;;;5117438;27;20264;-66
2021/06/26 13:30:59;;;;;;;;;;;;;;;;;;5117259;27;19912;-66
2021/06/26 13:33:25;;;;;;;;;;;;;;;;;;5115458;27;20374;-66
2021/06/26 13:35:51;;;;;;;;;;;;;;;;;;5116216;27;19915;-66
2021/06/26 13:38:17;;;;;;;;;;;;;;;;;;5102124;28;19968;-66
2021/06/26 13:40:49;;;;;;;;;;;;;;;;;;5116878;27;19911;-66
2021/06/26 13:43:15;;;;;;;;;;;;;;;;;;5116706;27;19922;-66
2021/06/26 13:45:41;;;;;;;;;;;;;;;;;;5116994;27;19911;-66
2021/06/26 13:48:07;;;;;;;;;;;;;;;;;;5112375;28;19911;-66
2021/06/26 13:50:33;;;;;;;;;;;;;;;;;;5119822;27;19923;-66
2021/06/26 13:52:59;;;;;;;;;;;;;;;;;;5116813;27;20354;-66
2021/06/26 13:55:25;;;;;;;;;;;;;;;;;;5117141;27;19911;-66
2021/06/26 13:57:51;;;;;;;;;;;;;;;;;;5116639;27;19919;-66
2021/06/26 14:00:18;;;;;;;;;;;;;;;;;;5114039;27;19912;-66
2021/06/26 14:02:44;;;;;;;;;;;;;;;;;;5116370;27;19915;-66
2021/06/26 14:05:11;;;;;;;;;;;;;;;;;;5117650;27;20006;-66
2021/06/26 14:07:37;;;;;;;;;;;;;;;;;;5116099;27;19917;-66
2021/06/26 14:10:03;;;;;;;;;;;;;;;;;;5116449;27;20023;-66
2021/06/26 14:12:29;;;;;;;;;;;;;;;;;;5115574;27;19964;-66
2021/06/26 14:14:55;;;;;;;;;;;;;;;;;;5113860;27;19950;-66
2021/06/26 14:17:21;;;;;;;;;;;;;;;;;;5118582;27;19907;-66
2021/06/26 14:19:46;;;;;;;;;;;;;;;;;;5116062;27;19930;-66
2021/06/26 14:22:12;;;;;;;;;;;;;;;;;;5116310;27;20313;-66
2021/06/26 14:24:38;;;;;;;;;;;;;;;;;;5116470;27;19919;-66
2021/06/26 14:27:04;;;;;;;;;;;;;;;;;;5111324;28;19935;-67
2021/06/26 14:29:30;;;;;;;;;;;;;;;;;;5119188;27;19935;-67
2021/06/26 14:31:56;;;;;;;;;;;;;;;;;;5116184;27;19958;-66
2021/06/26 14:34:22;;;;;;;;;;;;;;;;;;5115887;27;20049;-66
2021/06/26 14:36:48;;;;;;;;;;;;;;;;;;5116091;27;20355;-66
2021/06/26 14:39:14;;;;;;;;;;;;;;;;;;5112409;27;19926;-66
2021/06/26 14:41:40;;;;;;;;;;;;;;;;;;5098812;28;19911;-66
2021/06/26 14:44:05;;;;;;;;;;;;;;;;;;5117929;27;19915;-66
2021/06/26 14:46:31;;;;;;;;;;;;;;;;;;5115899;27;19912;-66
2021/06/26 14:48:57;;;;;;;;;;;;;;;;;;5115136;27;19966;-66
2021/06/26 14:51:23;;;;;;;;;;;;;;;;;;5113959;27;19923;-67
2021/06/26 14:53:50;;;;;;;;;;;;;;;;;;5114921;27;20279;-67
2021/06/26 14:56:16;;;;;;;;;;;;;;;;;;5116759;27;19918;-67
2021/06/26 14:58:42;;;;;;;;;;;;;;;;;;5114904;27;19959;-67
2021/06/26 15:01:08;;;;;;;;;;;;;;;;;;5115715;27;19918;-67
2021/06/26 15:03:34;;;;;;;;;;;;;;;;;;5115173;27;19934;-67
2021/06/26 15:06:00;;;;;;;;;;;;;;;;;;5111854;27;19955;-67
2021/06/26 15:08:28;;;;;;;;;;;;;;;;;;5117641;27;19942;-67
2021/06/26 15:10:54;;;;;;;;;;;;;;;;;;5115387;27;19924;-67
2021/06/26 15:13:21;;;;;;;;;;;;;;;;;;5115504;27;19960;-67
2021/06/26 15:15:47;;;;;;;;;;;;;;;;;;5115336;27;19948;-67
2021/06/26 15:18:13;;;;;;;;;;;;;;;;;;5111565;27;19931;-67
2021/06/26 15:20:38;;;;;;;;;;;;;;;;;;5116256;27;19915;-67
2021/06/26 15:23:04;;;;;;;;;;;;;;;;;;5115302;27;20057;-67
2021/06/26 15:25:30;;;;;;;;;;;;;;;;;;5115238;27;19916;-67
2021/06/26 15:27:56;;;;;;;;;;;;;;;;;;5114649;27;20029;-67
2021/06/26 15:30:22;;;;;;;;;;;;;;;;;;5094369;27;19991;-67
2021/06/26 15:32:48;;;;;;;;;;;;;;;;;;5114764;27;19915;-66
2021/06/26 15:35:14;;;;;;;;;;;;;;;;;;5116054;27;19961;-67
2021/06/26 15:37:40;;;;;;;;;;;;;;;;;;5096474;28;19916;-67
2021/06/26 15:40:07;;;;;;;;;;;;;;;;;;5114563;27;19911;-67
2021/06/26 15:42:33;;;;;;;;;;;;;;;;;;5095711;27;19911;-67
2021/06/26 15:44:59;;;;;;;;;;;;;;;;;;5111119;27;20347;-67
2021/06/26 15:47:26;;;;;;;;;;;;;;;;;;5117579;27;19954;-67
2021/06/26 15:49:52;;;;;;;;;;;;;;;;;;5114078;27;19915;-66
2021/06/26 15:52:18;;;;;;;;;;;;;;;;;;5114818;27;20003;-66
2021/06/26 15:54:44;;;;;;;;;;;;;;;;;;5114401;27;20366;-67
2021/06/26 15:57:10;;;;;;;;;;;;;;;;;;5110170;27;19916;-67
2021/06/26 15:59:36;;;;;;;;;;;;;;;;;;5116733;27;19915;-67
2021/06/26 16:02:01;;;;;;;;;;;;;;;;;;5114891;27;20282;-67
2021/06/26 16:04:27;;;;;;;;;;;;;;;;;;5113859;27;19916;-66
2021/06/26 16:06:53;;;;;;;;;;;;;;;;;;5114152;27;19918;-67
2021/06/26 16:09:19;;;;;;;;;;;;;;;;;;5111792;27;19920;-67
2021/06/26 16:11:45;;;;;;;;;;;;;;;;;;5113833;27;19914;-67
2021/06/26 16:14:11;;;;;;;;;;;;;;;;;;5115247;27;19960;-67
2021/06/26 16:16:37;;;;;;;;;;;;;;;;;;5095744;28;19911;-66
2021/06/26 16:19:03;;;;;;;;;;;;;;;;;;5113308;27;20007;-67
2021/06/26 16:21:29;;;;;;;;;;;;;;;;;;5113079;27;19911;-67
2021/06/26 16:23:55;;;;;;;;;;;;;;;;;;5111516;27;20330;-67
2021/06/26 16:26:21;;;;;;;;;;;;;;;;;;5115759;27;19918;-67
2021/06/26 16:28:46;;;;;;;;;;;;;;;;;;5114007;27;19962;-67
2021/06/26 16:31:12;;;;;;;;;;;;;;;;;;5113789;27;20325;-67
2021/06/26 16:33:38;;;;;;;;;;;;;;;;;;5113763;27;19990;-67
2021/06/26 16:36:04;;;;;;;;;;;;;;;;;;5109532;28;19918;-67